Time;durP1;ratioP1;P1;durP2;ratioP2;P2;SDS_P1;SDS_P2;PMS_P1;PMS_P2;Temp;Humidity;BMP_temperature;BMP_pressure;BME280_temperature;BME280_humidity;BME280_pressure;Samples;Min_cycle;Max_cycle;Signal;HPM_P1;HPM_P2
2021/12/30 06:49:22;;;;;;;5.07;3.88;;;;;;;;;;10595512;27;20471;-82
2021/12/30 06:54:25;;;;;;;4.00;3.00;;;;;;;;;;10593455;28;20454;-83
2021/12/30 06:59:32;;;;;;;4.72;4.25;;;;;;;;;;10593757;28;20056;-83
2021/12/30 07:04:42;;;;;;;4.93;4.40;;;;;;;;;;10594148;28;20032;-83
2021/12/30 07:09:55;;;;;;;6.43;5.82;;;;;;;;;;10590537;28;20028;-82
2021/12/30 07:15:01;;;;;;;4.43;3.85;;;;;;;;;;10592892;28;20031;-83
2021/12/30 07:20:09;;;;;;;3.13;2.30;;;;;;;;;;10674324;27;20066;-81
2021/12/30 07:25:16;;;;;;;4.10;3.55;;;;;;;;;;10681545;27;20365;-83
2021/12/30 07:30:23;;;;;;;3.90;3.35;;;;;;;;;;10676987;27;20031;-82
2021/12/30 07:35:37;;;;;;;4.60;4.13;;;;;;;;;;10659274;27;20030;-82
2021/12/30 07:40:38;;;;;;;4.72;4.25;;;;;;;;;;10660240;27;20084;-82
2021/12/30 07:45:57;;;;;;;4.22;3.83;;;;;;;;;;10659994;27;20062;-82
2021/12/30 07:51:10;;;;;;;7.63;6.82;;;;;;;;;;10694778;27;20031;-82
2021/12/30 07:56:20;;;;;;;4.05;3.53;;;;;;;;;;10674324;27;20031;-83
2021/12/30 08:01:21;;;;;;;3.55;2.42;;;;;;;;;;10627126;27;20054;-82
2021/12/30 08:06:26;;;;;;;;;;;;;;;;;;10624420;27;20496;-82
2021/12/30 08:11:27;;;;;;;3.15;1.90;;;;;;;;;;10626258;27;20355;-83
2021/12/30 08:16:28;;;;;;;2.70;1.98;;;;;;;;;;10621966;27;20034;-81
2021/12/30 08:21:29;;;;;;;3.13;2.30;;;;;;;;;;10620188;27;20023;-83
2021/12/30 08:27:10;;;;;;;3.55;2.13;;;;;;;;;;10619706;27;20071;-82
2021/12/30 08:32:13;;;;;;;2.85;2.35;;;;;;;;;;10637932;27;20396;-80
2021/12/30 08:37:21;;;;;;;3.55;2.60;;;;;;;;;;10619358;27;20030;-80
2021/12/30 08:42:32;;;;;;;3.25;2.10;;;;;;;;;;10603693;27;20042;-81
2021/12/30 08:47:33;;;;;;;3.28;2.40;;;;;;;;;;10620865;27;20050;-78
2021/12/30 08:52:35;;;;;;;3.97;2.15;;;;;;;;;;10642083;27;20023;-80
2021/12/30 08:57:38;;;;;;;3.55;2.17;;;;;;;;;;10625910;27;20090;-81
2021/12/30 09:02:39;;;;;;;2.40;1.80;;;;;;;;;;10641813;27;20016;-80
2021/12/30 09:07:43;;;;;;;2.53;1.90;;;;;;;;;;10659872;27;20023;-81
2021/12/30 09:12:46;;;;;;;2.42;2.03;;;;;;;;;;10641577;27;20023;-80
2021/12/30 09:17:48;;;;;;;3.08;2.15;;;;;;;;;;10661828;27;20042;-79
2021/12/30 09:22:52;;;;;;;2.67;2.42;;;;;;;;;;10643622;27;20054;-79
2021/12/30 09:27:54;;;;;;;2.40;1.98;;;;;;;;;;10638827;27;20031;-80
2021/12/30 09:32:57;;;;;;;2.90;2.60;;;;;;;;;;10638498;27;20034;-80
2021/12/30 09:37:59;;;;;;;3.40;2.75;;;;;;;;;;10643225;27;20033;-81
2021/12/30 09:43:04;;;;;;;3.45;2.80;;;;;;;;;;10643397;27;20073;-80
2021/12/30 09:48:10;;;;;;;3.35;2.65;;;;;;;;;;10647420;27;20046;-81
2021/12/30 09:59:02;;;;;;;4.28;2.42;;;;;;;;;;10663148;27;20043;-79
2021/12/30 10:04:13;;;;;;;3.47;2.50;;;;;;;;;;10658835;27;20027;-80
2021/12/30 10:09:15;;;;;;;3.83;2.40;;;;;;;;;;10656680;27;20011;-80
2021/12/30 10:14:33;;;;;;;3.75;2.47;;;;;;;;;;10642483;27;20219;-81
2021/12/30 10:19:34;;;;;;;3.97;2.60;;;;;;;;;;10641509;27;20034;-79
2021/12/30 10:35:54;;;;;;;4.55;2.20;;;;;;;;;;10657229;27;20035;-81
2021/12/30 10:40:59;;;;;;;4.90;2.05;;;;;;;;;;10617287;27;20397;-81
2021/12/30 10:46:11;;;;;;;4.40;2.22;;;;;;;;;;10618479;28;20038;-80
2021/12/30 10:51:23;;;;;;;3.05;2.33;;;;;;;;;;10636371;28;20027;-80
2021/12/30 10:56:34;;;;;;;3.88;2.38;;;;;;;;;;10635853;28;20023;-80
2021/12/30 11:01:40;;;;;;;3.05;2.13;;;;;;;;;;10638226;28;20076;-80
2021/12/30 11:06:41;;;;;;;2.80;2.17;;;;;;;;;;10618110;28;20019;-80
2021/12/30 11:11:53;;;;;;;3.55;1.83;;;;;;;;;;10617928;28;20481;-80
2021/12/30 11:16:59;;;;;;;3.53;2.40;;;;;;;;;;10620426;28;20062;-80
2021/12/30 11:22:25;;;;;;;3.25;2.40;;;;;;;;;;10637911;28;20437;-80
2021/12/30 11:27:27;;;;;;;3.22;1.90;;;;;;;;;;10655558;28;20097;-80
2021/12/30 11:32:30;;;;;;;3.72;1.83;;;;;;;;;;10616070;27;20386;-80
2021/12/30 11:37:31;;;;;;;5.07;2.03;;;;;;;;;;10624539;27;20034;-80
2021/12/30 11:42:43;;;;;;;2.38;1.52;;;;;;;;;;10624556;27;20096;-81
2021/12/30 11:47:48;;;;;;;3.55;1.85;;;;;;;;;;10625441;27;20111;-82
2021/12/30 11:53:21;;;;;;;4.05;1.77;;;;;;;;;;10648989;27;20034;-83
2021/12/30 11:58:40;;;;;;;3.47;1.88;;;;;;;;;;10663187;27;20038;-82
2021/12/30 12:03:53;;;;;;;5.35;1.70;;;;;;;;;;10641843;27;20540;-82
2021/12/30 12:09:16;;;;;;;4.53;1.95;;;;;;;;;;10625871;27;20027;-82
2021/12/30 12:14:31;;;;;;;6.03;2.38;;;;;;;;;;10628093;27;20027;-82
2021/12/30 12:19:33;;;;;;;5.78;2.28;;;;;;;;;;10642307;27;20049;-82
2021/12/30 12:24:35;;;;;;;3.50;2.28;;;;;;;;;;10624256;27;20030;-83
2021/12/30 12:29:43;;;;;;;3.20;1.83;;;;;;;;;;10624670;27;20377;-82
2021/12/30 12:34:46;;;;;;;4.43;2.67;;;;;;;;;;10623907;27;20038;-82
2021/12/30 12:39:54;;;;;;;5.05;2.15;;;;;;;;;;10640626;27;20518;-81
2021/12/30 12:45:14;;;;;;;5.45;2.47;;;;;;;;;;10641982;27;20396;-81
2021/12/30 12:50:15;;;;;;;7.38;2.40;;;;;;;;;;10620144;27;20027;-80
2021/12/30 12:55:20;;;;;;;5.20;2.08;;;;;;;;;;10621340;27;20042;-81
2021/12/30 13:00:21;;;;;;;3.88;1.95;;;;;;;;;;10631860;27;20019;-80
2021/12/30 13:05:22;;;;;;;5.80;2.97;;;;;;;;;;10620310;27;20023;-82
2021/12/30 13:10:24;;;;;;;8.73;5.20;;;;;;;;;;10619500;27;20057;-81
2021/12/30 13:15:25;;;;;;;5.13;2.17;;;;;;;;;;10621544;27;20034;-81
2021/12/30 13:20:26;;;;;;;5.10;2.38;;;;;;;;;;10620942;27;20058;-81
2021/12/30 13:25:29;;;;;;;5.43;2.28;;;;;;;;;;10620460;27;20088;-81
2021/12/30 13:30:30;;;;;;;5.65;2.72;;;;;;;;;;10621093;27;20035;-81
2021/12/30 13:35:37;;;;;;;4.65;2.22;;;;;;;;;;10639908;27;20026;-82
2021/12/30 13:40:42;;;;;;;5.55;2.08;;;;;;;;;;10619463;27;20058;-82
2021/12/30 13:45:48;;;;;;;4.15;2.28;;;;;;;;;;10636459;27;20050;-82
2021/12/30 13:50:54;;;;;;;5.13;2.30;;;;;;;;;;10620734;27;20023;-83
2021/12/30 13:55:57;;;;;;;5.30;2.30;;;;;;;;;;10629537;27;20026;-82
2021/12/30 14:01:10;;;;;;;3.92;1.88;;;;;;;;;;10635335;27;20019;-82
2021/12/30 14:06:18;;;;;;;5.68;2.08;;;;;;;;;;10621732;27;20118;-82
2021/12/30 14:11:27;;;;;;;4.30;2.42;;;;;;;;;;10622048;27;20027;-81
2021/12/30 14:16:32;;;;;;;3.95;2.40;;;;;;;;;;10635007;27;20159;-82
2021/12/30 14:27:25;;;;;;;3.20;2.00;;;;;;;;;;10638613;27;20023;-82
2021/12/30 14:38:06;;;;;;;4.75;2.53;;;;;;;;;;10639373;27;20031;-82
2021/12/30 14:43:13;;;;;;;5.20;3.30;;;;;;;;;;10638276;27;20020;-82
2021/12/30 14:53:34;;;;;;;4.63;2.20;;;;;;;;;;11595357;22;20044;-82
2021/12/30 14:58:35;;;;;;;3.83;2.40;;;;;;;;;;10534027;28;20028;-82
2021/12/30 15:03:36;;;;;;;4.28;2.00;;;;;;;;;;10534424;28;20031;-81
2021/12/30 15:08:37;;;;;;;4.32;2.30;;;;;;;;;;10548237;28;20019;-80
2021/12/30 15:13:39;;;;;;;5.07;2.20;;;;;;;;;;10554333;28;20104;-79
2021/12/30 15:18:41;;;;;;;3.10;2.08;;;;;;;;;;10545973;28;20055;-80
2021/12/30 15:23:42;;;;;;;5.03;2.33;;;;;;;;;;10544650;28;20410;-79
2021/12/30 15:28:44;;;;;;;3.92;2.17;;;;;;;;;;10542086;28;20024;-80
2021/12/30 15:33:47;;;;;;;2.92;1.85;;;;;;;;;;10549243;28;20046;-81
2021/12/30 15:38:48;;;;;;;4.63;2.00;;;;;;;;;;10545980;28;20024;-81
2021/12/30 15:43:49;;;;;;;4.82;1.70;;;;;;;;;;10545500;28;20083;-80
2021/12/30 15:48:50;;;;;;;4.40;2.33;;;;;;;;;;10550673;28;20032;-80
2021/12/30 15:53:51;;;;;;;2.85;1.75;;;;;;;;;;10571498;28;20048;-80
2021/12/30 15:58:52;;;;;;;4.70;2.80;;;;;;;;;;10544903;28;20054;-80
2021/12/30 16:03:53;;;;;;;3.17;2.17;;;;;;;;;;10564498;28;20107;-80
2021/12/30 16:08:54;;;;;;;4.78;2.40;;;;;;;;;;10550315;28;20462;-78
2021/12/30 16:13:55;;;;;;;3.08;2.08;;;;;;;;;;10568806;28;20024;-79
2021/12/30 16:18:57;;;;;;;5.15;2.20;;;;;;;;;;10559973;28;20044;-81
2021/12/30 16:23:58;;;;;;;4.68;2.17;;;;;;;;;;10550863;28;20106;-80
2021/12/30 16:28:59;;;;;;;5.18;2.50;;;;;;;;;;10550004;28;20034;-81
2021/12/30 16:34:00;;;;;;;4.93;2.72;;;;;;;;;;10548405;28;20043;-80
2021/12/30 16:39:01;;;;;;;4.53;2.63;;;;;;;;;;10571487;28;20032;-79
2021/12/30 16:44:03;;;;;;;4.88;3.30;;;;;;;;;;10553352;28;20032;-79
2021/12/30 16:49:03;;;;;;;5.03;2.78;;;;;;;;;;10550104;28;20160;-80
2021/12/30 16:54:05;;;;;;;5.57;3.35;;;;;;;;;;10549456;28;20058;-80
2021/12/30 16:59:06;;;;;;;5.70;3.45;;;;;;;;;;10548436;28;20091;-81
2021/12/30 17:04:07;;;;;;;5.20;2.90;;;;;;;;;;10548498;28;20054;-81
2021/12/30 17:09:08;;;;;;;5.78;3.97;;;;;;;;;;10549206;28;20047;-81
2021/12/30 17:25:33;;;;;;;4.75;2.55;;;;;;;;;;10559880;28;20091;-84
2021/12/30 17:30:34;;;;;;;4.65;2.00;;;;;;;;;;10535416;28;20016;-83
2021/12/30 17:35:36;;;;;;;5.65;2.75;;;;;;;;;;10533211;28;20370;-83
2021/12/30 17:40:37;;;;;;;3.75;2.67;;;;;;;;;;10533598;28;20012;-83
2021/12/30 17:45:38;;;;;;;;;;;;;;;;;;10532999;28;20114;-82
2021/12/30 17:50:39;;;;;;;4.95;2.72;;;;;;;;;;11315703;22;19980;-85
2021/12/30 17:55:39;;;;;;;;;;;;;;;;;;10497212;28;20037;-81
2021/12/30 18:00:42;;;;;;;4.53;2.45;;;;;;;;;;10462777;28;19904;-82
2021/12/30 18:05:43;;;;;;;4.28;2.22;;;;;;;;;;10445837;28;20025;-82
2021/12/30 18:10:44;;;;;;;5.10;2.70;;;;;;;;;;10462582;28;20028;-82
2021/12/30 18:15:45;;;;;;;4.88;2.63;;;;;;;;;;10462992;28;20025;-82
2021/12/30 18:20:46;;;;;;;;;;;;;;;;;;10462361;28;20044;-82
2021/12/30 18:25:48;;;;;;;4.00;2.40;;;;;;;;;;10462695;28;19905;-82
2021/12/30 18:30:49;;;;;;;5.88;3.08;;;;;;;;;;10463594;28;20033;-82
2021/12/30 18:35:49;;;;;;;;;;;;;;;;;;10443201;28;20036;-82
2021/12/30 18:40:52;;;;;;;5.90;2.63;;;;;;;;;;10461264;28;19911;-82
2021/12/30 18:45:55;;;;;;;5.93;3.58;;;;;;;;;;10461125;28;20033;-82
2021/12/30 18:51:01;;;;;;;7.75;3.50;;;;;;;;;;10462939;28;20044;-82
2021/12/30 18:56:03;;;;;;;5.60;3.95;;;;;;;;;;10445738;28;20115;-82
2021/12/30 19:01:06;;;;;;;4.45;3.50;;;;;;;;;;10445008;28;20387;-82
2021/12/30 19:06:10;;;;;;;3.92;2.90;;;;;;;;;;10461359;28;20021;-82
2021/12/30 19:11:13;;;;;;;4.45;3.25;;;;;;;;;;10466280;28;20080;-81
2021/12/30 19:16:14;;;;;;;5.90;3.70;;;;;;;;;;10447609;28;20024;-80
2021/12/30 19:21:15;;;;;;;5.55;3.30;;;;;;;;;;10488062;28;20040;-80
2021/12/30 19:26:17;;;;;;;4.03;3.13;;;;;;;;;;10463163;28;20025;-79
2021/12/30 19:31:18;;;;;;;4.20;2.97;;;;;;;;;;10464965;28;20034;-79
2021/12/30 19:36:19;;;;;;;;;;;;;;;;;;10465471;28;20025;-79
2021/12/30 19:41:20;;;;;;;3.85;3.05;;;;;;;;;;10445787;28;19905;-79
2021/12/30 19:46:21;;;;;;;;;;;;;;;;;;10463070;28;20036;-80
2021/12/30 19:51:22;;;;;;;5.03;3.40;;;;;;;;;;10460383;28;20022;-80
2021/12/30 19:56:23;;;;;;;4.38;2.70;;;;;;;;;;10466539;28;20055;-80
2021/12/30 20:01:24;;;;;;;5.10;3.13;;;;;;;;;;10467051;28;20111;-81
2021/12/30 20:06:25;;;;;;;;;;;;;;;;;;10468551;28;20477;-80
2021/12/30 20:11:26;;;;;;;4.45;2.53;;;;;;;;;;10451127;28;19912;-81
2021/12/30 20:16:27;;;;;;;4.95;2.50;;;;;;;;;;10465457;28;20037;-80
2021/12/30 20:21:28;;;;;;;;;;;;;;;;;;10465855;28;20032;-80
2021/12/30 20:26:33;;;;;;;5.05;2.60;;;;;;;;;;10466595;28;19904;-81
2021/12/30 20:31:35;;;;;;;4.65;2.45;;;;;;;;;;10469264;28;20035;-80
2021/12/30 20:36:37;;;;;;;3.10;2.20;;;;;;;;;;10468235;28;20439;-81
2021/12/30 20:41:39;;;;;;;6.15;2.25;;;;;;;;;;10464231;28;20021;-80
2021/12/30 20:46:40;;;;;;;3.47;2.58;;;;;;;;;;10464472;28;20394;-80
2021/12/30 20:51:41;;;;;;;3.20;2.28;;;;;;;;;;10466500;28;20036;-81
2021/12/30 20:56:42;;;;;;;;;;;;;;;;;;10466924;28;20032;-81
2021/12/30 21:01:43;;;;;;;4.05;2.35;;;;;;;;;;10465796;28;19905;-82
2021/12/30 21:06:46;;;;;;;;;;;;;;;;;;10588615;23;20048;-84
2021/12/30 21:11:51;;;;;;;4.13;2.50;;;;;;;;;;10621051;28;19951;-83
